UUDD/DME METAR and TAF weather

Enter ICAO airport designator
Station Type Date Time Source
UUDD METAR 2020/09/19 20:30 UTC NOAA

UUDD 192030Z 27004MPS CAVOK 07/04 Q1011 R32L/CLRD60 NOSIG


Station Type Date Time Source
UUDD Decoded METAR 2020/09/19 20:30 UTC NOAA

Moscow / Domodedovo, Russia (UUDD) 55-24N 037-54E
Sep 19, 2020 - 04:30 PM EDT / 2020.09.19 2030 UTC
Wind: from the W (270 degrees) at 9 MPH (8 KT):0
Visibility: greater than 7 mile(s):0
Temperature: 44 F (7 C)
Dew Point: 39 F (4 C)
Relative Humidity: 81%
Pressure (altimeter): 29.85 in. Hg (1011 hPa)
ob: UUDD 192030Z 27004MPS CAVOK 07/04 Q1011 R32L/CLRD60 NOSIG
cycle: 20

Station Type Date Time Source
UUDD TAF 2020/09/19 21:21 UTC NOAA

TAF UUDD 191953Z 1921/2103 28003G08MPS 9999 SCT020 TX13/2012Z TN05/2102Z
TEMPO 2007/2014 31008G15MPS

Example: see airport list